• Join FlightAware (Why Join?)
  • Login
  • US Flag 
06:26AM EDT


 

Airport Tracker/Info


-or-


 

Live Flight TrackerFlight Track Log ✈ ACA831 ✈ 22 de Aug de 2013 ✈ CYUL - CYYZ

Flight Track Log - Related Links

Times and Time Zones

All times are in EDT time to prevent confusion due to time zone crossing. See the ACA831 flight status page for this flight to view local times or setup timezone preferences in your user account.

Time Position Orientation Groundspeed Altitude Reporting Facility
EDT Latitude Longitude Course Direction KTS MPH feet Rate Location/Type
03:57PM 45.4560 -73.7530 38° Northeast  Level FlightAware
04:01PM 45.4333 -74.1172 270° West  Level FlightAware Approximate
04:02PM 45.4226 -74.2697 260° West  Level FlightAware Approximate
04:10PM 45.4680 -73.7200 223° Southwest 105 121  Level FlightAware
04:11PM 45.4590 -73.7330 225° Southwest 158 182 500 2,580 Climbing FlightAware
04:11PM 45.4460 -73.7480 219° Southwest 161 185 1,800 3,300 Climbing FlightAware
04:11PM 45.4370 -73.7590 221° Southwest 185 213 2,500 2,760 Climbing FlightAware
04:12PM 45.4250 -73.7720 217° Southwest 208 239 3,300 3,120 Climbing FlightAware
04:12PM 45.4070 -73.7960 223° Southwest 225 259 4,700 3,360 Climbing FlightAware
04:12PM 45.4050 -73.8040 250° West 236 272 5,000 3,600 Climbing FlightAware
04:12PM 45.4030 -73.8120 250° West 239 275 5,300 3,960 Climbing FlightAware
04:12PM 45.4030 -73.8280 270° West 248 285 6,000 4,380 Climbing FlightAware
04:13PM 45.4040 -73.8610 272° West 258 297 7,500 4,020 Climbing FlightAware
04:13PM 45.4050 -73.8940 272° West 266 306 8,900 4,200 Climbing FlightAware
04:13PM 45.3970 -73.9340 254° West 271 312 10,600 4,260 Climbing FlightAware
04:14PM 45.3820 -73.9920 250° West 294 338 12,700 4,200 Climbing FlightAware
04:15PM 45.3670 -74.0490 249° West 285 328 15,400 2,820 Climbing FlightAware
04:15PM 45.3490 -74.1190 250° West 288 331 16,000 1,320 Climbing FlightAware
04:16PM 45.3350 -74.1770 251° West 306 352 16,900 2,460 Climbing FlightAware
04:16PM 45.3170 -74.2580 252° West 329 379 19,000 3,240 Climbing FlightAware
04:17PM 45.3020 -74.3270 253° West 338 389 20,900 3,240 Climbing FlightAware
04:17PM 45.2870 -74.4070 255° West 349 402 22,800 2,880 Climbing FlightAware
04:18PM 45.2790 -74.4780 261° West 358 412 24,200 2,700 Climbing FlightAware
04:19PM 45.2690 -74.5690 261° West 368 423 26,000 3,000 Climbing FlightAware
04:19PM 45.2610 -74.6530 262° West 368 423 27,900 2,400 Climbing FlightAware
04:20PM 45.2520 -74.7390 262° West 390 449 28,800 1,260 Climbing FlightAware
04:20PM 45.2430 -74.8340 262° West 420 483 29,400 1,560 Climbing FlightAware
04:21PM 45.2340 -74.9230 262° West 426 490 30,600 3,180 Climbing FlightAware
04:21PM 45.2250 -75.0120 262° West 402 463 32,900 2,640 Climbing FlightAware
04:22PM 45.2140 -75.1150 261° West 390 449 33,900 900 Climbing FlightAware
04:23PM 45.2060 -75.1930 262° West 387 445 34,000 -660 Climbing FlightAware
04:23PM 45.1960 -75.2840 261° West 392 451 33,200 -1,200 Descending FlightAware
04:24PM 45.1860 -75.3740 261° West 389 448 32,600 -1,080 Descending FlightAware
04:24PM 45.1770 -75.4550 261° West 384 442 32,000 -540 Descending FlightAware
04:25PM 45.1680 -75.5460 262° West 392 451 32,000  Level FlightAware
04:26PM 45.1580 -75.6320 261° West 400 460 32,000  Level FlightAware
04:26PM 45.1470 -75.7320 261° West 400 460 32,000  Level FlightAware
04:27PM 45.1390 -75.8100 262° West 401 461 32,000  Level FlightAware
04:27PM 45.1280 -75.9060 261° West 399 459 32,000  Level FlightAware
04:28PM 45.1180 -75.9980 261° West 397 457 32,000  Level FlightAware
04:29PM 45.1040 -76.1190 261° West 398 458 32,000  Level FlightAware
04:29PM 45.0930 -76.2070 260° West 398 458 32,000  Level FlightAware
04:30PM 45.0720 -76.2800 248° West 402 463 32,000  Level FlightAware
04:31PM 45.0350 -76.3750 241° Southwest 402 463 32,000  Level FlightAware
04:31PM 45.0040 -76.4510 240° Southwest 403 464 32,000 -240 Level FlightAware
04:32PM 44.9660 -76.5470 241° Southwest 408 470 31,700 -720 Descending FlightAware
04:32PM 44.9350 -76.6270 241° Southwest 409 471 31,100 -960 Descending FlightAware
04:33PM 44.8980 -76.7200 241° Southwest 406 467 30,500 -960 Descending FlightAware
04:34PM 44.8580 -76.8180 240° Southwest 406 467 29,800 -1,020 Descending FlightAware
04:34PM 44.8180 -76.9180 241° Southwest 406 467 29,100 -960 Descending FlightAware
04:35PM 44.7890 -76.9910 241° Southwest 405 466 28,600 -1,080 Descending FlightAware
04:36PM 44.7550 -77.0750 240° Southwest 398 458 27,900 -1,080 Descending FlightAware
04:36PM 44.7240 -77.1490 239° Southwest 395 455 27,400 -960 Descending FlightAware
04:37PM 44.6910 -77.2320 241° Southwest 394 453 26,800 -1,080 Descending FlightAware
04:37PM 44.6600 -77.3080 240° Southwest 391 450 26,200 -720 Descending FlightAware
04:38PM 44.6270 -77.3870 240° Southwest 399 459 26,000 -180 Descending FlightAware
04:39PM 44.5940 -77.4680 240° Southwest 417 480 26,000  Level FlightAware
04:39PM 44.5600 -77.5500 240° Southwest 419 482 26,000  Level FlightAware
04:40PM 44.5320 -77.6180 240° Southwest 418 481 26,000  Level FlightAware
04:40PM 44.4990 -77.6980 240° Southwest 421 484 26,000  Level FlightAware
04:41PM 44.4580 -77.7960 240° Southwest 419 482 26,000  Level FlightAware
04:41PM 44.4270 -77.8720 240° Southwest 419 482 26,000  Level FlightAware
04:42PM 44.3850 -77.9720 240° Southwest 420 483 26,000  Level FlightAware
04:43PM 44.3470 -78.0650 240° Southwest 421 484 26,000  Level FlightAware
04:43PM 44.3200 -78.1290 239° Southwest 421 484 26,000 -300 Level FlightAware
04:44PM 44.2820 -78.2200 240° Southwest 407 468 25,700 -660 Descending FlightAware
04:45PM 44.2490 -78.2980 239° Southwest 390 449 25,200 -840 Descending FlightAware
04:45PM 44.2190 -78.3680 239° Southwest 377 434 24,800 -1,080 Descending FlightAware
04:46PM 44.1840 -78.4500 239° Southwest 369 425 24,000 -1,080 Descending FlightAware
04:46PM 44.1590 -78.5090 239° Southwest 362 417 23,600 -1,020 Descending FlightAware
04:47PM 44.1300 -78.5790 240° Southwest 357 411 22,900 -1,500 Descending FlightAware
04:47PM 44.1010 -78.6460 239° Southwest 354 407 21,900 -1,800 Descending FlightAware
04:48PM 44.0690 -78.7220 240° Southwest 351 404 20,700 -1,800 Descending FlightAware
04:49PM 44.0430 -78.7830 239° Southwest 344 396 19,800 -1,740 Descending FlightAware
04:49PM 44.0080 -78.8600 238° Southwest 339 390 18,700 -1,680 Descending FlightAware
04:50PM 43.9790 -78.9230 237° Southwest 331 381 17,700 -1,680 Descending FlightAware
04:50PM 43.9500 -78.9840 237° Southwest 320 368 16,800 -1,080 Descending FlightAware
04:51PM 43.9250 -79.0410 239° Southwest 295 339 16,500 -1,020 Descending FlightAware
04:51PM 43.9020 -79.0900 237° Southwest 293 337 15,700 -1,680 Descending FlightAware
04:52PM 43.8770 -79.1450 238° Southwest 294 338 14,700 -1,620 Descending FlightAware
04:53PM 43.8500 -79.2030 237° Southwest 294 338 13,700 -1,680 Descending FlightAware
04:53PM 43.8210 -79.2660 237° Southwest 295 339 12,600 -1,800 Descending FlightAware
04:54PM 43.8000 -79.3120 238° Southwest 294 338 11,800 -1,500 Descending FlightAware
04:54PM 43.7710 -79.3650 233° Southwest 293 337 11,000 -840 Descending FlightAware
04:55PM 43.7440 -79.3910 215° Southwest 281 323 11,000 -420 Level FlightAware
04:55PM 43.6940 -79.4060 192° South 265 305 10,600 -720 Descending FlightAware
04:56PM 43.6610 -79.4250 203° Southwest 255 293 10,200 -900 Descending FlightAware
04:56PM 43.6520 -79.4350 219° Southwest 249 287 10,000 -1,200 Descending FlightAware
04:57PM 43.6340 -79.4660 231° Southwest 245 282 9,500 -1,200 Descending FlightAware
04:57PM 43.6280 -79.4780 235° Southwest 245 282 9,300 -1,200 Descending FlightAware
04:57PM 43.6100 -79.5090 231° Southwest 244 281 8,800 -1,200 Descending FlightAware
04:57PM 43.5960 -79.5330 231° Southwest 244 281 8,400 -1,500 Descending FlightAware
04:58PM 43.5810 -79.5560 228° Southwest 246 283 7,800 -1,740 Descending FlightAware
04:58PM 43.5690 -79.5730 226° Southwest 249 287 7,400 -1,740 Descending FlightAware
04:58PM 43.5530 -79.5970 227° Southwest 252 290 6,800 -1,680 Descending FlightAware
04:59PM 43.5370 -79.6200 226° Southwest 249 287 6,300 -1,500 Descending FlightAware
04:59PM 43.5220 -79.6420 227° Southwest 246 283 5,800 -1,500 Descending FlightAware
04:59PM 43.5020 -79.6710 226° Southwest 242 278 5,200 -1,500 Descending FlightAware
05:00PM 43.4870 -79.6930 227° Southwest 238 274 4,700 -1,440 Descending FlightAware
05:00PM 43.4810 -79.7050 235° Southwest 232 267 4,500 -1,500 Descending FlightAware
05:00PM 43.4790 -79.7190 259° West 225 259 4,200 -1,440 Descending FlightAware
05:00PM 43.4830 -79.7470 281° West 216 249 3,800 -1,200 Descending FlightAware
05:01PM 43.4880 -79.7570 305° West 213 245 3,600 -600 Descending FlightAware
05:01PM 43.5000 -79.7790 307° West 198 228 3,500 -600 Descending FlightAware
05:01PM 43.5060 -79.7870 316° Northwest 191 220 3,300 -600 Descending FlightAware
05:01PM 43.5140 -79.7910 340° North 184 212 3,300 -300 Level FlightAware
05:01PM 43.5230 -79.7890 North 181 208 3,200 -480 Descending FlightAware
05:02PM 43.5330 -79.7830 24° Northeast 177 204 3,100 -360 Descending FlightAware
05:02PM 43.5480 -79.7710 30° Northeast 181 208 3,000 -240 Descending FlightAware
05:02PM 43.5540 -79.7630 44° Northeast 187 215 3,000 -360 Level FlightAware
05:03PM 43.5700 -79.7410 45° Northeast 191 220 2,800 -840 Descending FlightAware
05:03PM 43.5820 -79.7230 47° Northeast 187 215 2,400 -1,080 Descending FlightAware
05:03PM 43.5940 -79.7060 46° Northeast 178 205 2,100 -900 Descending FlightAware
05:04PM 43.6040 -79.6920 45° Northeast 159 183 1,800 -780 Descending FlightAware
05:04PM 43.6130 -79.6790 46° Northeast 151 174 1,600 -720 Descending FlightAware
05:04PM 43.6210 -79.6670 47° Northeast 150 173 1,400 -900 Descending FlightAware
05:05PM 43.6310 -79.6530 45° Northeast 149 171 1,100 -900 Descending FlightAware
05:05PM 43.6370 -79.6440 47° Northeast 150 173 900 -300 Descending FlightAware
05:05PM 43.6470 -79.6300 45° Northeast 150 173 900  Level FlightAware